LIMC/MXP METAR and TAF weather

Enter ICAO airport designator
Station Type Date Time Source
LIMC METAR 2018/12/19 10:20 UTC NOAA

LIMC 191020Z 24006KT 200V270 3000 BR BKN050 01/01 Q1025 NOSIG


Station Type Date Time Source
LIMC Decoded METAR 2018/12/19 10:20 UTC NOAA

Milano / Malpensa, Italy (LIMC) 45-37N 008-44E 211M
Dec 19, 2018 - 05:20 AM EST / 2018.12.19 1020 UTC
Wind: from the WSW (240 degrees) at 7 MPH (6 KT) (direction variable):0
Visibility: 1 mile(s):0
Sky conditions: mostly cloudy
Weather: mist
Temperature: 33 F (1 C)
Windchill: 26 F (-3 C):1
Dew Point: 33 F (1 C)
Relative Humidity: 100%
Pressure (altimeter): 30.27 in. Hg (1025 hPa)
ob: LIMC 191020Z 24006KT 200V270 3000 BR BKN050 01/01 Q1025 NOSIG
cycle: 10

Station Type Date Time Source
LIMC TAF 2018/12/19 06:23 UTC NOAA

TAF LIMC 190500Z 1906/2012 02005KT 2500 BR BKN040
BECMG 1910/1912 0800 SN OVC005
TEMPO 1916/1920 1500 RASN BKN008
BECMG 2000/2002 1800 BCFG BKN008


Example: see airport list